Aeroporto :
LOGIN :

Iscrizione | Disclaimer

   EN    FR    IT 

 










Sommario :    VFR   VFR Marginale   IFR   IFR Intensivo   IFR Molto Intensivo
Visibilità : 
Base nubi : 
>= 8 km
>= 3000ft
5 / 8 km
1000 / 3000 ft
1500m / 5 km
500 / 1000 ft
800 / 1500m
200 / 500 ft
< 800m
< 200 ft
Simboli :   Temporali  Nebbia  Neve Forte  Precipitazioni Forti  Vento > 20 kt
SIGMETs :   Varie  Temporali  Ghiacco  Turbolenza  Onda orograficha  Ceneri Vulcaniche






- Altitudine del aeroporto : 443 ft
- Codice IATA : GNA


UMMG - Grodno

ULTIMO METAR :
  • 271100Z 28007G10MPS 9999 BKN023 02/M00 Q0997 R17/290060 NOSIG

METARs OBSOLETI :
  • 271038Z 25007G10MPS 9999 SCT010 BKN026 02/00 Q0997 R17/290060 NOSIG
  • 271034Z 25006G09MPS 9999 SCT010 BKN026 02/00 Q0997 R17/290060 NOSIG
  • 271000Z 25003G06MPS 9000 -SHSN BKN010 BKN023CB 02/00 Q0997 R17/290060 NOSIG
  • 270908Z 25004G07MPS 6000 -SHSN BKN009 OVC023CB 02/M00 Q0997 R35/190065 NOSIG
  • 270900Z 25004G07MPS 4200 -SHSN BKN012 OVC023CB 02/M00 Q0997 R35/190065 NOSIG
  • 270851Z 25004G07MPS 4500 -SHSN BKN012 OVC026CB 02/M02 Q0996 R35/190065 NOSIG

TAF TAF UMMG
Valido dal 27 a 12 ore il 27 a 21 ore UTC


271111Z 2712/2721 28006G11MPS 6000 BKN010
TEMPO 2712/2715 29009G14MPS 2100 -SHRAGS BKN005 BKN015CB
TEMPO 2715/2721 3000 -SHSNRA BKN007CB



MetMap, La meteo Aeronautica in un colpo d'occhio ! - Copyright ORBIFLY Dicembre 2007 - Disclaimer

ORBIFLY MET'MAP TEAM :

Programmazione e sviluppo : Alexandra Zaïnal
Concezione : Baudouin d'Aumeries
Aiuto per la programmazione : Marc-Olivier Méhu
Supporto tecnico e logistico : Manuel Goepfert
Aiuto per la traduzione : Arnaldo La Scala

Contatto : metmap@orbifly.com




FONTI E CREDITI :

   NOAA